createdAt,value
2023-03-19T00:01:36.450Z,21.36
2023-03-19T00:04:39.217Z,21.35
2023-03-19T00:07:43.341Z,21.35
2023-03-19T00:10:46.525Z,21.33
2023-03-19T00:13:49.360Z,21.33
2023-03-19T00:20:20.416Z,21.31
2023-03-19T00:23:24.554Z,21.30
2023-03-19T00:26:27.646Z,21.28
2023-03-19T00:29:31.063Z,21.28
2023-03-19T00:32:34.106Z,21.28
2023-03-19T00:35:37.146Z,21.26
2023-03-19T00:38:41.285Z,21.26
2023-03-19T00:41:50.318Z,21.25
2023-03-19T00:44:53.165Z,21.25
2023-03-19T00:47:56.328Z,21.23
2023-03-19T00:51:04.317Z,21.22
2023-03-19T00:54:08.518Z,21.21
2023-03-19T00:57:11.760Z,21.20
2023-03-19T01:00:18.521Z,21.19
2023-03-19T01:03:21.357Z,21.17
2023-03-19T01:06:24.159Z,21.16
2023-03-19T01:09:28.446Z,21.15
2023-03-19T01:12:31.472Z,21.17
2023-03-19T01:15:36.890Z,21.16
2023-03-19T01:18:39.783Z,21.17
2023-03-19T01:21:46.159Z,21.16
2023-03-19T01:24:53.125Z,21.16
2023-03-19T01:27:56.387Z,21.15
2023-03-19T01:31:01.036Z,21.14
2023-03-19T01:34:10.020Z,21.13
2023-03-19T01:37:30.098Z,21.13
2023-03-19T01:40:34.573Z,21.12
2023-03-19T01:43:37.841Z,21.12
2023-03-19T01:46:47.862Z,21.12
2023-03-19T01:50:22.138Z,21.13
2023-03-19T01:53:31.826Z,21.13
2023-03-19T01:56:47.788Z,21.14
2023-03-19T02:00:02.659Z,21.13
2023-03-19T02:03:19.145Z,21.12
2023-03-19T02:06:37.708Z,21.12
2023-03-19T02:09:41.955Z,21.10
2023-03-19T02:12:46.543Z,21.11
2023-03-19T02:15:49.909Z,21.10
2023-03-19T02:18:53.808Z,21.09
2023-03-19T02:21:57.643Z,21.10
2023-03-19T02:25:07.635Z,21.09
2023-03-19T02:28:17.203Z,21.10
2023-03-19T02:31:20.982Z,21.10
2023-03-19T02:34:41.465Z,21.10
2023-03-19T02:37:44.904Z,21.09
2023-03-19T02:40:52.992Z,21.10
2023-03-19T02:44:00.905Z,21.09
2023-03-19T02:47:04.327Z,21.09
2023-03-19T02:50:08.909Z,21.08
2023-03-19T02:53:11.823Z,21.08
2023-03-19T02:56:14.619Z,21.06
2023-03-19T02:59:18.981Z,21.06
2023-03-19T03:02:21.814Z,21.07
2023-03-19T03:05:25.012Z,21.07
2023-03-19T03:08:28.520Z,21.08
2023-03-19T03:11:31.481Z,21.07
2023-03-19T03:14:36.151Z,21.07
2023-03-19T03:17:39.582Z,21.07
2023-03-19T03:20:42.321Z,21.07
2023-03-19T03:23:45.060Z,21.05
2023-03-19T03:26:47.886Z,21.05
2023-03-19T03:29:52.821Z,21.05
2023-03-19T03:32:55.764Z,21.04
2023-03-19T03:35:58.704Z,21.05
2023-03-19T03:39:02.056Z,21.04
2023-03-19T03:42:05.091Z,21.04
2023-03-19T03:45:12.189Z,21.05
2023-03-19T03:48:17.333Z,21.05
2023-03-19T03:51:22.153Z,21.05
2023-03-19T03:54:24.910Z,21.06
2023-03-19T03:57:28.225Z,21.07
2023-03-19T04:00:33.915Z,21.08
2023-03-19T04:03:36.934Z,21.09
2023-03-19T04:06:39.854Z,21.11
2023-03-19T04:09:55.288Z,21.12
2023-03-19T04:12:58.742Z,21.13
2023-03-19T04:16:06.265Z,21.15
2023-03-19T04:19:09.236Z,21.17
2023-03-19T04:22:12.108Z,21.18
2023-03-19T04:25:15.393Z,21.18
2023-03-19T04:28:18.389Z,21.20
2023-03-19T04:31:22.685Z,21.20
2023-03-19T04:34:26.096Z,21.21
2023-03-19T04:37:28.937Z,21.22
2023-03-19T04:40:31.861Z,21.22
2023-03-19T04:43:35.039Z,21.23
2023-03-19T04:46:41.899Z,21.23
2023-03-19T04:49:44.769Z,21.24
2023-03-19T04:52:48.139Z,21.24
2023-03-19T04:55:52.128Z,21.25
2023-03-19T04:58:56.794Z,21.26
2023-03-19T05:02:01.178Z,21.24
2023-03-19T05:05:04.762Z,21.25
2023-03-19T05:08:08.664Z,21.25
2023-03-19T05:11:12.099Z,21.25
2023-03-19T05:14:31.393Z,21.26
2023-03-19T05:17:47.564Z,21.26
2023-03-19T05:21:06.208Z,21.25
2023-03-19T05:24:09.788Z,21.25
2023-03-19T05:27:13.845Z,21.24
2023-03-19T05:30:27.171Z,21.25
2023-03-19T05:33:44.715Z,21.24
2023-03-19T05:36:48.136Z,21.25
2023-03-19T05:39:54.264Z,21.24
2023-03-19T05:42:57.153Z,21.25
2023-03-19T05:46:03.247Z,21.26
2023-03-19T05:49:10.506Z,21.26
2023-03-19T05:52:13.504Z,21.26
2023-03-19T05:55:17.385Z,21.27
2023-03-19T05:58:23.268Z,21.25
2023-03-19T06:01:26.431Z,21.26
2023-03-19T06:04:31.197Z,21.27
2023-03-19T06:07:34.074Z,21.27
2023-03-19T06:10:38.366Z,21.28
2023-03-19T06:13:46.243Z,21.30
2023-03-19T06:16:52.292Z,21.28
2023-03-19T06:19:56.512Z,21.28
2023-03-19T06:23:00.386Z,21.28
2023-03-19T06:26:04.579Z,21.29
2023-03-19T06:29:11.652Z,21.28
2023-03-19T06:32:16.567Z,21.27
2023-03-19T06:35:20.988Z,21.25
2023-03-19T06:38:25.553Z,21.25
2023-03-19T06:41:28.423Z,21.25
2023-03-19T06:44:39.390Z,21.24
2023-03-19T06:47:43.233Z,21.24
2023-03-19T06:50:48.216Z,21.23
2023-03-19T06:53:51.038Z,21.21
2023-03-19T06:56:53.944Z,21.21
2023-03-19T06:59:56.756Z,21.20
2023-03-19T07:02:59.913Z,21.19
2023-03-19T07:06:04.230Z,21.18
2023-03-19T07:09:07.138Z,21.19
2023-03-19T07:12:10.469Z,21.19
2023-03-19T07:15:13.557Z,21.19
2023-03-19T07:18:16.321Z,21.20
2023-03-19T07:21:20.768Z,21.21
2023-03-19T07:24:23.560Z,21.22
2023-03-19T07:27:26.302Z,21.23
2023-03-19T07:30:29.185Z,21.23
2023-03-19T07:33:31.983Z,21.25
2023-03-19T07:36:36.182Z,21.26
2023-03-19T07:39:39.183Z,21.27
2023-03-19T07:42:44.629Z,21.27
2023-03-19T07:45:48.689Z,21.28
2023-03-19T07:48:51.565Z,21.28
2023-03-19T07:51:55.661Z,21.29
2023-03-19T07:54:58.497Z,21.29
2023-03-19T07:58:01.303Z,21.29
2023-03-19T08:01:04.101Z,21.29
2023-03-19T08:04:07.068Z,21.29
2023-03-19T08:07:12.807Z,21.29
2023-03-19T08:10:15.853Z,21.29
2023-03-19T08:13:18.656Z,21.28
2023-03-19T08:16:21.696Z,21.28
2023-03-19T08:19:24.547Z,21.28
2023-03-19T08:22:28.661Z,21.29
2023-03-19T08:25:32.613Z,21.28
2023-03-19T08:28:35.536Z,21.28
2023-03-19T08:31:38.335Z,21.29
2023-03-19T08:34:41.118Z,21.30
2023-03-19T08:37:45.366Z,21.28
2023-03-19T08:40:49.088Z,21.28
2023-03-19T08:43:51.881Z,21.27
2023-03-19T08:46:55.953Z,21.27
2023-03-19T08:49:58.713Z,21.26
2023-03-19T08:53:02.832Z,21.27
2023-03-19T08:56:08.111Z,21.27
2023-03-19T08:59:11.040Z,21.28
2023-03-19T09:02:14.077Z,21.27
2023-03-19T09:05:17.158Z,21.29
2023-03-19T09:08:21.288Z,21.30
2023-03-19T09:11:24.381Z,21.30
2023-03-19T09:14:27.253Z,21.29
2023-03-19T09:17:29.996Z,21.29
2023-03-19T09:20:32.785Z,21.28
2023-03-19T09:23:37.010Z,21.21
2023-03-19T09:26:39.763Z,21.10
2023-03-19T09:29:42.612Z,21.01
2023-03-19T09:32:45.511Z,20.95
2023-03-19T09:35:51.782Z,20.93
2023-03-19T09:38:56.214Z,20.94
2023-03-19T09:42:09.850Z,20.95
2023-03-19T09:45:16.054Z,21.00
2023-03-19T09:48:28.846Z,21.06
2023-03-19T09:51:41.089Z,21.13
2023-03-19T09:54:48.418Z,21.18
2023-03-19T09:57:53.309Z,21.22
2023-03-19T10:00:57.462Z,21.25
2023-03-19T10:04:37.612Z,21.28
2023-03-19T10:07:56.972Z,21.29
2023-03-19T10:11:18.153Z,21.31
2023-03-19T10:14:38.391Z,21.32
2023-03-19T10:17:44.099Z,21.34
2023-03-19T10:20:53.199Z,21.34
2023-03-19T10:24:00.523Z,21.36
2023-03-19T10:27:11.861Z,21.38
2023-03-19T10:30:17.399Z,21.39
2023-03-19T10:33:24.567Z,21.39
2023-03-19T10:36:31.565Z,21.41
2023-03-19T10:39:37.067Z,21.41
2023-03-19T10:42:54.080Z,21.42
2023-03-19T10:45:58.642Z,21.40
2023-03-19T10:49:01.448Z,21.40
2023-03-19T10:52:05.612Z,21.40
2023-03-19T10:55:15.803Z,21.40
2023-03-19T10:58:22.164Z,21.40
2023-03-19T11:01:29.850Z,21.41
2023-03-19T11:04:32.790Z,21.39
2023-03-19T11:07:37.988Z,21.39
2023-03-19T11:10:48.095Z,21.40
2023-03-19T11:13:52.299Z,21.39
2023-03-19T11:17:02.808Z,21.38
2023-03-19T11:20:23.607Z,21.39
2023-03-19T11:23:29.493Z,21.39
2023-03-19T11:26:32.544Z,21.38
2023-03-19T11:29:40.622Z,21.39
2023-03-19T11:33:04.859Z,21.39
2023-03-19T11:36:14.138Z,21.39
2023-03-19T11:39:27.329Z,21.39
2023-03-19T11:42:47.900Z,21.39
2023-03-19T11:46:05.142Z,21.39
2023-03-19T11:49:22.786Z,21.39
2023-03-19T11:52:34.726Z,21.38
2023-03-19T11:55:43.381Z,21.39
2023-03-19T11:59:04.886Z,21.39
2023-03-19T12:02:33.783Z,21.40
2023-03-19T12:05:47.326Z,21.41
2023-03-19T12:08:57.513Z,21.41
2023-03-19T12:12:14.078Z,21.41
2023-03-19T12:15:25.737Z,21.42
2023-03-19T12:18:52.312Z,21.42
2023-03-19T12:22:07.614Z,21.41
2023-03-19T12:25:29.855Z,21.41
2023-03-19T12:28:35.860Z,21.42
2023-03-19T12:31:48.808Z,21.42
2023-03-19T12:34:57.757Z,21.42
2023-03-19T12:38:04.738Z,21.43
2023-03-19T12:41:11.003Z,21.43
2023-03-19T12:44:20.775Z,21.44
2023-03-19T12:47:27.726Z,21.45
2023-03-19T12:50:35.364Z,21.44
2023-03-19T12:53:48.432Z,21.45
2023-03-19T12:56:58.766Z,21.44
2023-03-19T13:00:06.853Z,21.44
2023-03-19T13:03:18.571Z,21.44
2023-03-19T13:06:28.211Z,21.44
2023-03-19T13:09:37.898Z,21.44
2023-03-19T13:12:41.430Z,21.43
2023-03-19T13:15:48.794Z,21.44
2023-03-19T13:19:00.047Z,21.44
2023-03-19T13:22:10.551Z,21.46
2023-03-19T13:25:17.714Z,21.46
2023-03-19T13:28:28.072Z,21.46
2023-03-19T13:31:36.769Z,21.45
2023-03-19T13:34:39.875Z,21.45
2023-03-19T13:37:45.179Z,21.45
2023-03-19T13:40:49.995Z,21.45
2023-03-19T13:43:56.442Z,21.44
2023-03-19T13:47:02.553Z,21.44
2023-03-19T13:50:23.501Z,21.45
2023-03-19T13:53:42.604Z,21.45
2023-03-19T13:57:27.790Z,21.45
2023-03-19T14:00:59.492Z,21.46
2023-03-19T14:04:04.932Z,21.46
2023-03-19T14:07:14.150Z,21.45
2023-03-19T14:13:35.301Z,21.44
2023-03-19T14:16:42.702Z,21.44
2023-03-19T14:19:45.684Z,21.43
2023-03-19T14:22:58.280Z,21.44
2023-03-19T14:26:07.445Z,21.43
2023-03-19T14:29:15.333Z,21.44
2023-03-19T14:32:22.430Z,21.43
2023-03-19T14:35:26.915Z,21.44
2023-03-19T14:38:37.848Z,21.44
2023-03-19T14:41:45.899Z,21.44
2023-03-19T14:45:21.081Z,21.43
2023-03-19T14:49:09.287Z,21.42
2023-03-19T14:52:15.497Z,21.43
2023-03-19T14:55:18.681Z,21.43
2023-03-19T14:58:23.581Z,21.43
2023-03-19T15:01:27.905Z,21.44
2023-03-19T15:04:30.861Z,21.43
2023-03-19T15:07:38.578Z,21.44
2023-03-19T15:10:50.192Z,21.45
2023-03-19T15:14:08.891Z,21.46
2023-03-19T15:17:20.228Z,21.46
2023-03-19T15:20:24.413Z,21.45
2023-03-19T15:23:29.634Z,21.45
2023-03-19T15:26:34.880Z,21.44
2023-03-19T15:29:39.060Z,21.45
2023-03-19T15:33:04.392Z,21.45
2023-03-19T15:36:13.411Z,21.44
2023-03-19T15:39:20.095Z,21.44
2023-03-19T15:42:25.819Z,21.44
2023-03-19T15:45:33.539Z,21.45
2023-03-19T15:48:43.095Z,21.46
2023-03-19T15:51:53.327Z,21.46
2023-03-19T15:54:56.997Z,21.46
2023-03-19T15:58:07.810Z,21.45
2023-03-19T16:01:13.940Z,21.45
2023-03-19T16:04:20.975Z,21.45
2023-03-19T16:07:26.144Z,21.44
2023-03-19T16:10:38.771Z,21.44
2023-03-19T16:13:47.668Z,21.44
2023-03-19T16:16:53.109Z,21.45
2023-03-19T16:20:01.555Z,21.46
2023-03-19T16:23:04.551Z,21.46
2023-03-19T16:26:16.900Z,21.48
2023-03-19T16:29:23.744Z,21.46
2023-03-19T16:32:29.883Z,21.47
2023-03-19T16:35:34.474Z,21.46
2023-03-19T16:38:44.227Z,21.45
2023-03-19T16:42:15.303Z,21.46
2023-03-19T16:45:26.221Z,21.46
2023-03-19T16:48:30.332Z,21.46
2023-03-19T16:51:33.601Z,21.47
2023-03-19T16:54:36.417Z,21.48
2023-03-19T16:57:39.219Z,21.48
2023-03-19T17:00:43.192Z,21.49
2023-03-19T17:03:48.833Z,21.50
2023-03-19T17:06:51.780Z,21.50
2023-03-19T17:09:54.559Z,21.51
2023-03-19T17:12:58.326Z,21.51
2023-03-19T17:16:04.419Z,21.52
2023-03-19T17:19:17.267Z,21.52
2023-03-19T17:22:20.193Z,21.52
2023-03-19T17:25:25.812Z,21.52
2023-03-19T17:28:28.710Z,21.51
2023-03-19T17:31:33.606Z,21.51
2023-03-19T17:34:38.712Z,21.50
2023-03-19T17:37:41.673Z,21.51
2023-03-19T17:40:44.925Z,21.51
2023-03-19T17:43:49.453Z,21.51
2023-03-19T17:46:55.272Z,21.51
2023-03-19T17:50:00.020Z,21.51
2023-03-19T17:53:03.330Z,21.50
2023-03-19T17:56:07.050Z,21.50
2023-03-19T17:59:10.183Z,21.50
2023-03-19T18:02:24.768Z,21.52
2023-03-19T18:05:28.971Z,21.50
2023-03-19T18:08:31.778Z,21.51
2023-03-19T18:11:34.755Z,21.51
2023-03-19T18:14:37.676Z,21.52
2023-03-19T18:17:42.633Z,21.51
2023-03-19T18:20:47.662Z,21.52
2023-03-19T18:23:50.519Z,21.53
2023-03-19T18:26:53.541Z,21.53
2023-03-19T18:29:56.371Z,21.54
2023-03-19T18:33:01.734Z,21.54
2023-03-19T18:36:06.720Z,21.54
2023-03-19T18:39:13.143Z,21.54
2023-03-19T18:42:15.996Z,21.53
2023-03-19T18:45:19.960Z,21.52
2023-03-19T18:48:25.714Z,21.48
2023-03-19T18:51:30.210Z,21.45
2023-03-19T18:54:33.568Z,21.43
2023-03-19T18:57:37.726Z,21.43
2023-03-19T19:00:40.586Z,21.40
2023-03-19T19:03:46.078Z,21.39
2023-03-19T19:06:50.417Z,21.37
2023-03-19T19:09:53.594Z,21.39
2023-03-19T19:12:57.396Z,21.41
2023-03-19T19:16:01.558Z,21.44
2023-03-19T19:19:05.053Z,21.45
2023-03-19T19:22:14.220Z,21.46
2023-03-19T19:25:18.500Z,21.47
2023-03-19T19:28:26.667Z,21.48
2023-03-19T19:31:32.523Z,21.50
2023-03-19T19:34:35.478Z,21.51
2023-03-19T19:37:39.714Z,21.52
2023-03-19T19:40:44.109Z,21.53
2023-03-19T19:43:47.911Z,21.54
2023-03-19T19:46:53.221Z,21.55
2023-03-19T19:49:56.579Z,21.56
2023-03-19T19:53:00.756Z,21.58
2023-03-19T19:56:16.097Z,21.60
2023-03-19T19:59:19.403Z,21.59
2023-03-19T20:02:24.388Z,21.60
2023-03-19T20:05:29.302Z,21.60
2023-03-19T20:08:33.437Z,21.60
2023-03-19T20:11:36.341Z,21.60
2023-03-19T20:14:39.297Z,21.60
2023-03-19T20:17:42.207Z,21.60
2023-03-19T20:20:45.432Z,21.60
2023-03-19T20:23:52.908Z,21.61
2023-03-19T20:26:56.135Z,21.60
2023-03-19T20:29:59.111Z,21.61
2023-03-19T20:33:02.550Z,21.62
2023-03-19T20:36:06.445Z,21.62
2023-03-19T20:39:10.830Z,21.63
2023-03-19T20:42:15.574Z,21.63
2023-03-19T20:45:21.525Z,21.63
2023-03-19T20:48:25.016Z,21.62
2023-03-19T20:51:31.557Z,21.61
2023-03-19T20:54:35.785Z,21.60
2023-03-19T20:57:38.579Z,21.61
2023-03-19T21:00:41.943Z,21.60
2023-03-19T21:03:44.901Z,21.60
2023-03-19T21:06:53.300Z,21.61
2023-03-19T21:09:59.145Z,21.61
2023-03-19T21:13:02.950Z,21.61
2023-03-19T21:16:06.956Z,21.62
2023-03-19T21:19:10.320Z,21.62
2023-03-19T21:22:17.653Z,21.63
2023-03-19T21:25:25.583Z,21.64
2023-03-19T21:28:32.793Z,21.62
2023-03-19T21:31:36.064Z,21.63
2023-03-19T21:34:38.916Z,21.61
2023-03-19T21:37:42.672Z,21.62
2023-03-19T21:40:47.639Z,21.62
2023-03-19T21:43:54.485Z,21.62
2023-03-19T21:46:57.373Z,21.62
2023-03-19T21:50:00.338Z,21.62
2023-03-19T21:53:03.265Z,21.63
2023-03-19T21:56:16.260Z,21.62
2023-03-19T21:59:22.723Z,21.62
2023-03-19T22:02:41.503Z,21.63
2023-03-19T22:05:44.589Z,21.64
2023-03-19T22:08:48.587Z,21.63
2023-03-19T22:11:52.748Z,21.62
2023-03-19T22:14:55.869Z,21.61
2023-03-19T22:17:59.840Z,21.61
2023-03-19T22:21:02.682Z,21.61
2023-03-19T22:24:05.891Z,21.62
2023-03-19T22:27:16.752Z,21.61
2023-03-19T22:30:23.642Z,21.60
2023-03-19T22:33:27.971Z,21.59
2023-03-19T22:36:30.881Z,21.61
2023-03-19T22:39:33.708Z,21.62
2023-03-19T22:42:38.785Z,21.63
2023-03-19T22:45:41.680Z,21.63
2023-03-19T22:48:47.959Z,21.64
2023-03-19T22:51:51.338Z,21.63
2023-03-19T22:54:54.208Z,21.63
2023-03-19T22:57:58.388Z,21.62
2023-03-19T23:01:01.511Z,21.62
2023-03-19T23:04:18.668Z,21.63
2023-03-19T23:07:21.506Z,21.62
2023-03-19T23:10:26.838Z,21.60
2023-03-19T23:13:31.292Z,21.61
2023-03-19T23:16:34.212Z,21.61
2023-03-19T23:19:38.343Z,21.60
2023-03-19T23:22:41.390Z,21.61
2023-03-19T23:25:46.030Z,21.61
2023-03-19T23:28:50.650Z,21.62
2023-03-19T23:31:53.749Z,21.62
2023-03-19T23:35:01.208Z,21.62
2023-03-19T23:38:05.681Z,21.62
2023-03-19T23:41:08.896Z,21.61
2023-03-19T23:44:16.702Z,21.61
2023-03-19T23:47:19.990Z,21.60
2023-03-19T23:50:22.974Z,21.60
2023-03-19T23:53:28.222Z,21.60
2023-03-19T23:56:32.577Z,21.60
2023-03-19T23:59:39.240Z,21.61
